createdAt,value
2022-11-19T00:00:16.274Z,8.20
2022-11-19T00:03:22.474Z,8.63
2022-11-19T00:06:28.588Z,8.77
2022-11-19T00:09:32.532Z,8.10
2022-11-19T00:12:57.521Z,8.20
2022-11-19T00:16:04.742Z,8.07
2022-11-19T00:19:09.174Z,7.87
2022-11-19T00:22:13.235Z,8.73
2022-11-19T00:28:39.495Z,7.47
2022-11-19T00:31:42.137Z,8.45
2022-11-19T00:34:46.079Z,8.17
2022-11-19T00:37:50.105Z,7.40
2022-11-19T00:40:54.053Z,8.50
2022-11-19T00:43:58.027Z,7.75
2022-11-19T00:47:00.685Z,7.78
2022-11-19T00:50:03.402Z,8.27
2022-11-19T00:53:07.422Z,8.00
2022-11-19T00:56:13.213Z,7.60
2022-11-19T00:59:17.835Z,6.97
2022-11-19T01:02:20.633Z,7.43
2022-11-19T01:05:24.626Z,7.33
2022-11-19T01:08:28.814Z,7.47
2022-11-19T01:11:35.663Z,7.38
2022-11-19T01:14:38.345Z,6.55
2022-11-19T01:17:42.295Z,7.10
2022-11-19T01:20:46.888Z,7.63
2022-11-19T01:23:51.620Z,7.35
2022-11-19T01:26:55.572Z,7.10
2022-11-19T01:29:59.554Z,7.13
2022-11-19T01:33:02.261Z,7.10
2022-11-19T01:39:34.160Z,6.32
2022-11-19T01:42:55.039Z,6.53
2022-11-19T01:45:57.734Z,6.50
2022-11-19T01:49:05.411Z,7.07
2022-11-19T01:52:09.382Z,7.27
2022-11-19T01:55:15.385Z,6.55
2022-11-19T01:58:22.154Z,7.00
2022-11-19T02:01:26.683Z,7.05
2022-11-19T02:04:30.558Z,6.72
2022-11-19T02:07:36.599Z,6.47
2022-11-19T02:10:55.509Z,5.72
2022-11-19T02:14:08.383Z,6.53
2022-11-19T02:17:20.825Z,5.75
2022-11-19T02:20:45.316Z,6.03
2022-11-19T02:24:17.094Z,6.20
2022-11-19T02:27:55.370Z,5.88
2022-11-19T02:31:09.036Z,5.65
2022-11-19T02:34:16.654Z,6.18
2022-11-19T02:37:28.666Z,5.85
2022-11-19T02:40:37.377Z,5.77
2022-11-19T02:43:44.127Z,5.70
2022-11-19T02:46:50.576Z,6.20
2022-11-19T02:50:00.746Z,5.88
2022-11-19T02:53:04.492Z,5.95
2022-11-19T02:56:18.312Z,5.50
2022-11-19T02:59:47.428Z,5.43
2022-11-19T03:03:17.982Z,6.07
2022-11-19T03:06:25.161Z,6.32
2022-11-19T03:09:28.723Z,6.03
2022-11-19T03:12:46.981Z,5.37
2022-11-19T03:16:10.620Z,5.65
2022-11-19T03:19:28.733Z,6.00
2022-11-19T03:22:36.462Z,5.70
2022-11-19T03:25:44.650Z,6.20
2022-11-19T03:28:49.869Z,5.43
2022-11-19T03:31:57.632Z,5.85
2022-11-19T03:35:06.649Z,5.97
2022-11-19T03:38:16.168Z,5.55
2022-11-19T03:41:21.276Z,5.70
2022-11-19T03:44:29.551Z,5.60
2022-11-19T03:47:37.888Z,5.20
2022-11-19T03:50:49.573Z,6.10
2022-11-19T03:53:53.618Z,5.88
2022-11-19T03:56:59.052Z,5.95
2022-11-19T04:00:03.011Z,5.40
2022-11-19T04:03:05.821Z,5.60
2022-11-19T04:06:12.592Z,5.50
2022-11-19T04:09:16.714Z,4.95
2022-11-19T04:12:21.365Z,5.45
2022-11-19T04:15:25.407Z,5.20
2022-11-19T04:18:29.340Z,5.35
2022-11-19T04:21:34.669Z,5.22
2022-11-19T04:24:38.616Z,5.47
2022-11-19T04:27:41.288Z,6.00
2022-11-19T04:30:45.610Z,5.40
2022-11-19T04:33:48.254Z,5.88
2022-11-19T04:36:53.562Z,5.63
2022-11-19T04:39:57.594Z,5.03
2022-11-19T04:43:01.050Z,5.75
2022-11-19T04:46:05.096Z,5.77
2022-11-19T04:49:07.988Z,5.13
2022-11-19T04:52:12.130Z,4.95
2022-11-19T04:55:16.242Z,4.72
2022-11-19T04:58:23.032Z,5.69
2022-11-19T05:01:27.017Z,5.00
2022-11-19T05:04:29.810Z,4.80
2022-11-19T05:07:33.898Z,4.82
2022-11-19T05:10:37.878Z,5.28
2022-11-19T05:13:40.551Z,5.07
2022-11-19T05:16:44.517Z,5.17
2022-11-19T05:19:48.424Z,4.57
2022-11-19T05:22:52.425Z,5.00
2022-11-19T05:25:56.347Z,5.10
2022-11-19T05:28:59.022Z,5.17
2022-11-19T05:32:01.751Z,5.00
2022-11-19T05:35:05.852Z,4.60
2022-11-19T05:38:09.904Z,4.80
2022-11-19T05:41:12.574Z,4.90
2022-11-19T05:44:15.239Z,4.87
2022-11-19T05:47:18.570Z,4.67
2022-11-19T05:50:22.485Z,4.88
2022-11-19T05:53:27.285Z,4.85
2022-11-19T05:56:31.207Z,4.55
2022-11-19T05:59:33.961Z,4.93
2022-11-19T06:02:38.034Z,4.77
2022-11-19T06:05:42.051Z,5.07
2022-11-19T06:08:46.103Z,4.70
2022-11-19T06:15:12.687Z,4.67
2022-11-19T06:18:16.824Z,4.30
2022-11-19T06:21:20.161Z,4.53
2022-11-19T06:24:25.475Z,4.97
2022-11-19T06:27:29.411Z,4.88
2022-11-19T06:30:32.064Z,4.73
2022-11-19T06:33:36.011Z,4.93
2022-11-19T06:36:43.772Z,5.28
2022-11-19T06:39:51.678Z,5.80
2022-11-19T06:42:54.351Z,4.72
2022-11-19T06:45:58.301Z,5.20
2022-11-19T06:49:01.010Z,3.60
2022-11-19T06:52:04.994Z,4.43
2022-11-19T06:55:09.920Z,4.43
2022-11-19T06:58:14.616Z,4.50
2022-11-19T07:01:17.369Z,4.43
2022-11-19T07:04:21.424Z,4.87
2022-11-19T07:07:27.305Z,4.53
2022-11-19T07:10:31.673Z,5.15
2022-11-19T07:13:48.271Z,4.07
2022-11-19T07:16:52.267Z,4.30
2022-11-19T07:19:54.981Z,4.57
2022-11-19T07:22:59.382Z,5.00
2022-11-19T07:26:03.740Z,4.82
2022-11-19T07:29:09.356Z,5.53
2022-11-19T07:32:12.095Z,5.80
2022-11-19T07:35:16.049Z,6.30
2022-11-19T07:38:18.756Z,5.65
2022-11-19T07:41:41.786Z,5.15
2022-11-19T07:44:46.618Z,4.93
2022-11-19T07:47:53.003Z,5.10
2022-11-19T07:50:56.674Z,6.20
2022-11-19T07:54:00.727Z,5.32
2022-11-19T07:57:04.930Z,4.88
2022-11-19T08:00:09.303Z,5.65
2022-11-19T08:03:13.499Z,5.50
2022-11-19T08:06:18.260Z,5.40
2022-11-19T08:09:22.462Z,5.97
2022-11-19T08:12:26.578Z,6.97
2022-11-19T08:15:30.549Z,6.03
2022-11-19T08:18:32.366Z,5.03
2022-11-19T08:21:36.541Z,4.83
2022-11-19T08:24:39.314Z,4.90
2022-11-19T08:27:44.636Z,4.50
2022-11-19T08:30:47.391Z,4.13
2022-11-19T08:33:50.107Z,3.90
2022-11-19T08:36:52.815Z,5.00
2022-11-19T08:39:56.724Z,4.38
2022-11-19T08:42:59.765Z,4.63
2022-11-19T08:46:02.464Z,5.00
2022-11-19T08:49:05.223Z,4.87
2022-11-19T08:52:09.284Z,4.80
2022-11-19T09:01:58.439Z,5.90
2022-11-19T09:05:01.156Z,4.90
2022-11-19T09:11:25.433Z,4.90
2022-11-19T09:14:29.633Z,4.68
2022-11-19T09:17:33.769Z,4.78
2022-11-19T09:20:36.820Z,4.97
2022-11-19T09:23:41.465Z,4.60
2022-11-19T09:26:50.261Z,5.20
2022-11-19T09:29:56.622Z,5.05
2022-11-19T09:33:00.277Z,4.60
2022-11-19T09:36:03.172Z,5.00
2022-11-19T09:39:05.859Z,4.87
2022-11-19T09:42:33.562Z,5.07
2022-11-19T09:45:54.503Z,4.65
2022-11-19T09:49:05.154Z,4.40
2022-11-19T09:52:14.624Z,4.27
2022-11-19T09:55:21.775Z,4.50
2022-11-19T09:58:30.352Z,4.35
2022-11-19T10:01:36.705Z,4.18
2022-11-19T10:04:40.687Z,4.22
2022-11-19T10:07:51.124Z,4.17
2022-11-19T10:11:08.893Z,4.07
2022-11-19T10:18:08.773Z,4.15
2022-11-19T10:21:19.955Z,3.63
2022-11-19T10:24:29.587Z,3.90
2022-11-19T10:27:43.898Z,3.50
2022-11-19T10:30:50.775Z,3.80
2022-11-19T10:34:02.086Z,5.50
2022-11-19T10:37:09.574Z,4.93
2022-11-19T10:40:18.327Z,3.30
2022-11-19T10:43:26.380Z,3.97
2022-11-19T10:46:29.820Z,3.65
2022-11-19T10:49:39.020Z,3.90
2022-11-19T10:52:45.121Z,4.30
2022-11-19T10:55:54.500Z,4.07
2022-11-19T10:59:02.287Z,3.58
2022-11-19T11:02:27.603Z,3.40
2022-11-19T11:05:34.339Z,3.45
2022-11-19T11:08:49.460Z,4.90
2022-11-19T11:12:10.829Z,3.70
2022-11-19T11:15:18.209Z,3.90
2022-11-19T11:18:28.574Z,3.63
2022-11-19T11:21:36.762Z,3.65
2022-11-19T11:24:41.807Z,3.30
2022-11-19T11:27:44.485Z,3.90
2022-11-19T11:30:54.685Z,3.33
2022-11-19T11:33:59.992Z,3.58
2022-11-19T11:37:06.914Z,3.60
2022-11-19T11:44:02.518Z,3.30
2022-11-19T11:47:13.146Z,3.47
2022-11-19T11:50:21.778Z,3.53
2022-11-19T11:53:32.962Z,3.38
2022-11-19T11:56:36.893Z,3.40
2022-11-19T11:59:40.879Z,3.03
2022-11-19T12:03:01.228Z,3.58
2022-11-19T12:06:13.003Z,3.35
2022-11-19T12:09:24.225Z,3.13
2022-11-19T12:12:35.832Z,3.40
2022-11-19T12:15:52.334Z,3.13
2022-11-19T12:19:10.790Z,3.47
2022-11-19T12:22:20.866Z,3.42
2022-11-19T12:25:32.067Z,3.83
2022-11-19T12:32:34.343Z,3.40
2022-11-19T12:35:45.631Z,3.83
2022-11-19T12:38:59.565Z,3.63
2022-11-19T12:42:24.522Z,3.80
2022-11-19T12:45:36.852Z,3.80
2022-11-19T12:53:04.888Z,4.25
2022-11-19T12:56:22.134Z,4.28
2022-11-19T12:59:39.201Z,3.53
2022-11-19T13:02:51.417Z,3.90
2022-11-19T13:05:58.584Z,4.37
2022-11-19T13:09:06.379Z,4.30
2022-11-19T13:12:14.522Z,3.83
2022-11-19T13:15:23.887Z,3.90
2022-11-19T13:18:31.792Z,3.50
2022-11-19T13:21:45.687Z,4.10
2022-11-19T13:24:52.200Z,4.03
2022-11-19T13:27:57.542Z,4.78
2022-11-19T13:31:06.676Z,4.33
2022-11-19T13:34:17.936Z,4.70
2022-11-19T13:37:29.705Z,4.43
2022-11-19T13:40:37.864Z,5.10
2022-11-19T13:44:13.076Z,4.40
2022-11-19T13:47:24.327Z,4.80
2022-11-19T13:50:33.402Z,4.30
2022-11-19T13:53:41.979Z,4.68
2022-11-19T13:56:48.442Z,4.40
2022-11-19T13:59:56.854Z,4.63
2022-11-19T14:03:21.644Z,4.53
2022-11-19T14:06:47.046Z,4.83
2022-11-19T14:10:01.656Z,4.43
2022-11-19T14:13:21.574Z,4.57
2022-11-19T14:16:51.944Z,4.68
2022-11-19T14:20:18.323Z,4.83
2022-11-19T14:24:01.033Z,5.00
2022-11-19T14:27:20.941Z,5.25
2022-11-19T14:31:03.511Z,4.72
2022-11-19T14:34:25.333Z,5.57
2022-11-19T14:37:35.568Z,5.37
2022-11-19T14:40:43.663Z,5.20
2022-11-19T14:44:10.091Z,4.50
2022-11-19T14:47:37.263Z,4.78
2022-11-19T14:50:40.010Z,5.38
2022-11-19T14:53:53.679Z,5.20
2022-11-19T14:57:06.347Z,4.97
2022-11-19T15:00:30.791Z,5.40
2022-11-19T15:03:35.313Z,5.43
2022-11-19T15:06:40.161Z,5.53
2022-11-19T15:10:09.750Z,5.83
2022-11-19T15:13:29.198Z,5.53
2022-11-19T15:16:34.872Z,5.78
2022-11-19T15:19:48.872Z,5.43
2022-11-19T15:23:03.438Z,5.13
2022-11-19T15:26:16.921Z,6.03
2022-11-19T15:29:24.841Z,5.60
2022-11-19T15:32:42.838Z,5.80
2022-11-19T15:36:17.140Z,5.35
2022-11-19T15:39:27.190Z,4.75
2022-11-19T15:42:43.936Z,5.00
2022-11-19T15:45:52.165Z,5.47
2022-11-19T15:49:00.736Z,5.25
2022-11-19T15:52:18.267Z,6.18
2022-11-19T15:58:50.004Z,5.10
2022-11-19T16:02:02.163Z,5.40
2022-11-19T16:05:07.067Z,6.72
2022-11-19T16:08:14.017Z,5.82
2022-11-19T16:11:36.608Z,5.97
2022-11-19T16:15:01.855Z,5.50
2022-11-19T16:18:06.005Z,5.37
2022-11-19T16:21:08.820Z,5.88
2022-11-19T16:27:57.138Z,5.32
2022-11-19T16:31:04.605Z,5.83
2022-11-19T16:34:14.455Z,5.77
2022-11-19T16:37:20.303Z,5.88
2022-11-19T16:40:24.565Z,5.47
2022-11-19T16:43:27.634Z,6.35
2022-11-19T16:46:32.810Z,5.60
2022-11-19T16:49:48.972Z,6.83
2022-11-19T16:52:52.197Z,5.60
2022-11-19T16:56:02.122Z,5.47
2022-11-19T16:59:07.898Z,5.82
2022-11-19T17:02:17.002Z,5.17
2022-11-19T17:08:56.165Z,5.93
2022-11-19T17:12:17.721Z,6.50
2022-11-19T17:15:40.464Z,5.93
2022-11-19T17:18:46.816Z,5.27
2022-11-19T17:21:54.327Z,6.00
2022-11-19T17:24:58.412Z,5.55
2022-11-19T17:28:03.638Z,5.68
2022-11-19T17:31:15.829Z,6.03
2022-11-19T17:34:30.489Z,5.80
2022-11-19T17:37:33.194Z,5.65
2022-11-19T17:40:37.297Z,5.82
2022-11-19T17:43:59.393Z,5.85
2022-11-19T17:47:02.521Z,5.67
2022-11-19T17:50:09.042Z,5.27
2022-11-19T17:53:11.729Z,5.22
2022-11-19T18:03:03.571Z,6.13
2022-11-19T18:06:10.364Z,5.20
2022-11-19T18:09:13.127Z,5.70
2022-11-19T18:12:18.927Z,5.45
2022-11-19T18:15:22.235Z,6.03
2022-11-19T18:18:26.254Z,5.33
2022-11-19T18:21:30.340Z,5.40
2022-11-19T18:24:34.426Z,5.32
2022-11-19T18:27:37.113Z,6.40
2022-11-19T18:30:41.123Z,6.65
2022-11-19T18:33:46.549Z,5.80
2022-11-19T18:40:16.135Z,5.70
2022-11-19T18:43:39.810Z,5.45
2022-11-19T18:46:43.117Z,4.88
2022-11-19T18:49:45.827Z,5.37
2022-11-19T18:52:51.148Z,5.67
2022-11-19T18:55:53.835Z,5.15
2022-11-19T18:59:01.796Z,5.85
2022-11-19T19:02:09.620Z,5.23
2022-11-19T19:05:13.656Z,5.65
2022-11-19T19:08:17.695Z,5.78
2022-11-19T19:11:35.475Z,6.13
2022-11-19T19:14:38.463Z,5.47
2022-11-19T19:17:42.582Z,7.18
2022-11-19T19:20:45.257Z,7.72
2022-11-19T19:23:51.375Z,6.60
2022-11-19T19:26:54.101Z,5.90
2022-11-19T19:29:58.233Z,6.25
2022-11-19T19:33:00.946Z,6.45
2022-11-19T19:36:05.327Z,6.20
2022-11-19T19:39:10.744Z,6.32
2022-11-19T19:42:13.486Z,5.83
2022-11-19T19:45:16.577Z,6.47
2022-11-19T19:48:20.589Z,6.38
2022-11-19T19:51:25.673Z,6.10
2022-11-19T19:54:31.094Z,6.88
2022-11-19T19:57:33.888Z,6.13
2022-11-19T20:00:37.854Z,6.93
2022-11-19T20:03:40.968Z,6.65
2022-11-19T20:06:47.504Z,6.60
2022-11-19T20:09:52.808Z,6.95
2022-11-19T20:13:14.042Z,6.90
2022-11-19T20:16:20.090Z,6.18
2022-11-19T20:19:24.592Z,6.90
2022-11-19T20:22:27.598Z,6.60
2022-11-19T20:28:56.109Z,6.23
2022-11-19T20:31:59.085Z,6.45
2022-11-19T20:35:01.868Z,6.55
2022-11-19T20:38:05.792Z,6.40
2022-11-19T20:41:28.907Z,6.53
2022-11-19T20:44:32.861Z,6.93
2022-11-19T20:47:35.585Z,7.13
2022-11-19T20:50:39.621Z,7.47
2022-11-19T20:53:42.498Z,7.63
2022-11-19T21:00:10.135Z,6.30
2022-11-19T21:03:14.138Z,6.88
2022-11-19T21:06:18.093Z,7.30
2022-11-19T21:09:21.355Z,6.55
2022-11-19T21:12:25.801Z,7.70
2022-11-19T21:18:51.861Z,6.80
2022-11-19T21:21:54.543Z,6.93
2022-11-19T21:24:58.510Z,6.07
2022-11-19T21:31:39.446Z,6.77
2022-11-19T21:34:42.774Z,6.43
2022-11-19T21:37:46.761Z,6.97
2022-11-19T21:40:52.778Z,7.30
2022-11-19T21:43:58.107Z,7.53
2022-11-19T21:47:02.090Z,6.13
2022-11-19T21:50:06.504Z,6.20
2022-11-19T21:53:09.850Z,6.32
2022-11-19T21:56:13.899Z,6.15
2022-11-19T21:59:19.697Z,7.00
2022-11-19T22:02:22.719Z,6.60
2022-11-19T22:08:48.805Z,6.30
2022-11-19T22:11:51.456Z,6.07
2022-11-19T22:14:55.516Z,6.90
2022-11-19T22:17:59.460Z,6.63
2022-11-19T22:21:04.451Z,6.57
2022-11-19T22:24:07.717Z,7.43
2022-11-19T22:27:11.626Z,6.93
2022-11-19T22:30:16.176Z,7.07
2022-11-19T22:33:20.123Z,6.53
2022-11-19T22:36:24.056Z,6.10
2022-11-19T22:39:28.053Z,6.97
2022-11-19T22:42:30.709Z,7.18
2022-11-19T22:45:36.038Z,7.15
2022-11-19T22:48:39.065Z,6.63
2022-11-19T22:51:43.065Z,6.95
2022-11-19T22:54:45.812Z,7.22
2022-11-19T22:57:49.701Z,7.00
2022-11-19T23:00:55.110Z,6.50
2022-11-19T23:03:59.892Z,6.67
2022-11-19T23:10:24.267Z,6.00
2022-11-19T23:13:33.002Z,5.75
2022-11-19T23:16:38.974Z,6.68
2022-11-19T23:19:41.823Z,6.03
2022-11-19T23:22:45.766Z,6.32
2022-11-19T23:25:48.458Z,6.18
2022-11-19T23:28:52.965Z,6.55
2022-11-19T23:31:56.950Z,6.78
2022-11-19T23:35:00.880Z,7.00
2022-11-19T23:38:03.574Z,6.15
2022-11-19T23:41:09.413Z,7.30
2022-11-19T23:44:12.093Z,7.13
2022-11-19T23:47:17.422Z,6.25
2022-11-19T23:50:20.304Z,6.47
2022-11-19T23:53:24.275Z,5.67
2022-11-19T23:56:30.551Z,6.73
2022-11-19T23:59:33.321Z,6.53
